sensor_id;sensor_type;location;lat;lon;timestamp;P1;durP1;ratioP1;P2;durP2;ratioP2
59109;SDS011;44895;47.438;18.978;2023-01-10T00:01:16;14.35;;;8.63;;
59109;SDS011;44895;47.438;18.978;2023-01-10T00:04:20;14.68;;;9.20;;
59109;SDS011;44895;47.438;18.978;2023-01-10T00:07:24;13.20;;;8.55;;
59109;SDS011;44895;47.438;18.978;2023-01-10T00:10:28;12.07;;;7.97;;
59109;SDS011;44895;47.438;18.978;2023-01-10T00:13:32;13.77;;;9.75;;
59109;SDS011;44895;47.438;18.978;2023-01-10T00:16:36;12.57;;;7.55;;
59109;SDS011;44895;47.438;18.978;2023-01-10T00:19:41;13.65;;;9.35;;
59109;SDS011;44895;47.438;18.978;2023-01-10T00:22:45;13.07;;;8.48;;
59109;SDS011;44895;47.438;18.978;2023-01-10T00:25:49;14.48;;;9.93;;
59109;SDS011;44895;47.438;18.978;2023-01-10T00:28:52;12.57;;;8.63;;
59109;SDS011;44895;47.438;18.978;2023-01-10T00:31:56;13.80;;;9.93;;
59109;SDS011;44895;47.438;18.978;2023-01-10T00:35:00;14.27;;;9.52;;
59109;SDS011;44895;47.438;18.978;2023-01-10T00:38:07;13.68;;;8.45;;
59109;SDS011;44895;47.438;18.978;2023-01-10T00:41:11;14.90;;;10.15;;
59109;SDS011;44895;47.438;18.978;2023-01-10T00:44:34;11.80;;;7.55;;
59109;SDS011;44895;47.438;18.978;2023-01-10T00:47:38;12.77;;;9.23;;
59109;SDS011;44895;47.438;18.978;2023-01-10T00:50:42;10.77;;;7.65;;
59109;SDS011;44895;47.438;18.978;2023-01-10T00:53:46;12.65;;;8.05;;
59109;SDS011;44895;47.438;18.978;2023-01-10T00:56:50;13.88;;;8.70;;
59109;SDS011;44895;47.438;18.978;2023-01-10T00:59:54;14.95;;;9.93;;
59109;SDS011;44895;47.438;18.978;2023-01-10T01:02:57;13.88;;;8.43;;
59109;SDS011;44895;47.438;18.978;2023-01-10T01:06:04;12.20;;;7.82;;
59109;SDS011;44895;47.438;18.978;2023-01-10T01:09:09;13.18;;;7.20;;
59109;SDS011;44895;47.438;18.978;2023-01-10T01:12:13;10.73;;;6.82;;
59109;SDS011;44895;47.438;18.978;2023-01-10T01:15:17;15.48;;;9.05;;
59109;SDS011;44895;47.438;18.978;2023-01-10T01:18:20;10.85;;;7.13;;
59109;SDS011;44895;47.438;18.978;2023-01-10T01:21:24;15.30;;;9.32;;
59109;SDS011;44895;47.438;18.978;2023-01-10T01:24:31;14.77;;;9.05;;
59109;SDS011;44895;47.438;18.978;2023-01-10T01:27:35;14.23;;;8.20;;
59109;SDS011;44895;47.438;18.978;2023-01-10T01:30:40;13.55;;;9.07;;
59109;SDS011;44895;47.438;18.978;2023-01-10T01:33:44;13.05;;;7.25;;
59109;SDS011;44895;47.438;18.978;2023-01-10T01:36:48;10.93;;;7.25;;
59109;SDS011;44895;47.438;18.978;2023-01-10T01:39:54;12.10;;;7.43;;
59109;SDS011;44895;47.438;18.978;2023-01-10T01:42:58;11.77;;;7.43;;
59109;SDS011;44895;47.438;18.978;2023-01-10T01:46:02;9.70;;;6.43;;
59109;SDS011;44895;47.438;18.978;2023-01-10T01:49:08;11.13;;;7.15;;
59109;SDS011;44895;47.438;18.978;2023-01-10T01:52:22;8.90;;;5.90;;
59109;SDS011;44895;47.438;18.978;2023-01-10T01:55:31;12.40;;;5.72;;
59109;SDS011;44895;47.438;18.978;2023-01-10T01:58:40;10.77;;;5.05;;
59109;SDS011;44895;47.438;18.978;2023-01-10T02:02:00;7.70;;;4.40;;
59109;SDS011;44895;47.438;18.978;2023-01-10T02:05:12;8.55;;;4.22;;
59109;SDS011;44895;47.438;18.978;2023-01-10T02:08:19;8.60;;;4.93;;
59109;SDS011;44895;47.438;18.978;2023-01-10T02:11:23;8.23;;;3.25;;
59109;SDS011;44895;47.438;18.978;2023-01-10T02:14:27;7.20;;;3.58;;
59109;SDS011;44895;47.438;18.978;2023-01-10T02:17:31;8.27;;;3.42;;
59109;SDS011;44895;47.438;18.978;2023-01-10T02:20:38;6.90;;;3.35;;
59109;SDS011;44895;47.438;18.978;2023-01-10T02:28:14;3.92;;;1.90;;
59109;SDS011;44895;47.438;18.978;2023-01-10T02:38:13;7.97;;;2.92;;
59109;SDS011;44895;47.438;18.978;2023-01-10T02:41:22;6.60;;;2.22;;
59109;SDS011;44895;47.438;18.978;2023-01-10T02:44:43;5.50;;;2.72;;
59109;SDS011;44895;47.438;18.978;2023-01-10T02:47:52;6.70;;;2.10;;
59109;SDS011;44895;47.438;18.978;2023-01-10T02:51:02;6.65;;;2.75;;
59109;SDS011;44895;47.438;18.978;2023-01-10T02:54:15;4.43;;;2.13;;
59109;SDS011;44895;47.438;18.978;2023-01-10T03:04:50;6.90;;;1.58;;
59109;SDS011;44895;47.438;18.978;2023-01-10T03:11:03;2.83;;;0.90;;
59109;SDS011;44895;47.438;18.978;2023-01-10T03:14:11;2.10;;;1.13;;
59109;SDS011;44895;47.438;18.978;2023-01-10T03:17:19;2.15;;;1.30;;
59109;SDS011;44895;47.438;18.978;2023-01-10T03:20:25;2.80;;;1.42;;
59109;SDS011;44895;47.438;18.978;2023-01-10T03:23:31;2.45;;;0.82;;
59109;SDS011;44895;47.438;18.978;2023-01-10T03:33:34;1.25;;;0.68;;
59109;SDS011;44895;47.438;18.978;2023-01-10T03:36:46;1.45;;;0.57;;
59109;SDS011;44895;47.438;18.978;2023-01-10T03:46:55;1.95;;;0.77;;
59109;SDS011;44895;47.438;18.978;2023-01-10T03:53:21;1.23;;;0.52;;
59109;SDS011;44895;47.438;18.978;2023-01-10T03:56:25;1.00;;;0.60;;
59109;SDS011;44895;47.438;18.978;2023-01-10T03:59:29;2.08;;;0.77;;
59109;SDS011;44895;47.438;18.978;2023-01-10T04:02:33;3.78;;;1.45;;
59109;SDS011;44895;47.438;18.978;2023-01-10T04:05:36;3.42;;;1.00;;
59109;SDS011;44895;47.438;18.978;2023-01-10T04:08:40;1.88;;;0.57;;
59109;SDS011;44895;47.438;18.978;2023-01-10T04:11:44;1.25;;;0.70;;
59109;SDS011;44895;47.438;18.978;2023-01-10T04:14:48;1.50;;;0.82;;
59109;SDS011;44895;47.438;18.978;2023-01-10T04:17:52;2.22;;;0.63;;
59109;SDS011;44895;47.438;18.978;2023-01-10T04:20:56;1.13;;;0.60;;
59109;SDS011;44895;47.438;18.978;2023-01-10T04:24:00;1.67;;;0.70;;
59109;SDS011;44895;47.438;18.978;2023-01-10T04:27:04;2.42;;;1.10;;
59109;SDS011;44895;47.438;18.978;2023-01-10T04:30:08;2.47;;;0.70;;
59109;SDS011;44895;47.438;18.978;2023-01-10T04:33:12;3.58;;;1.05;;
59109;SDS011;44895;47.438;18.978;2023-01-10T04:36:16;3.00;;;1.33;;
59109;SDS011;44895;47.438;18.978;2023-01-10T04:39:20;2.40;;;1.00;;
59109;SDS011;44895;47.438;18.978;2023-01-10T04:42:24;3.92;;;1.70;;
59109;SDS011;44895;47.438;18.978;2023-01-10T04:45:27;3.33;;;1.15;;
59109;SDS011;44895;47.438;18.978;2023-01-10T04:48:31;1.98;;;0.88;;
59109;SDS011;44895;47.438;18.978;2023-01-10T04:51:35;3.13;;;1.38;;
59109;SDS011;44895;47.438;18.978;2023-01-10T04:54:39;3.78;;;1.50;;
59109;SDS011;44895;47.438;18.978;2023-01-10T04:57:43;5.15;;;2.53;;
59109;SDS011;44895;47.438;18.978;2023-01-10T05:00:46;3.00;;;1.38;;
59109;SDS011;44895;47.438;18.978;2023-01-10T05:03:51;5.25;;;1.80;;
59109;SDS011;44895;47.438;18.978;2023-01-10T05:06:56;6.65;;;2.83;;
59109;SDS011;44895;47.438;18.978;2023-01-10T05:10:00;4.20;;;1.85;;
59109;SDS011;44895;47.438;18.978;2023-01-10T05:13:04;3.55;;;1.30;;
59109;SDS011;44895;47.438;18.978;2023-01-10T05:16:07;3.75;;;1.38;;
59109;SDS011;44895;47.438;18.978;2023-01-10T05:19:12;3.47;;;1.23;;
59109;SDS011;44895;47.438;18.978;2023-01-10T05:22:16;3.33;;;1.52;;
59109;SDS011;44895;47.438;18.978;2023-01-10T05:25:19;2.45;;;0.95;;
59109;SDS011;44895;47.438;18.978;2023-01-10T05:28:23;1.73;;;0.75;;
59109;SDS011;44895;47.438;18.978;2023-01-10T05:31:27;0.85;;;0.40;;
59109;SDS011;44895;47.438;18.978;2023-01-10T05:34:30;2.15;;;0.57;;
59109;SDS011;44895;47.438;18.978;2023-01-10T05:37:34;1.48;;;0.70;;
59109;SDS011;44895;47.438;18.978;2023-01-10T05:40:38;1.45;;;0.50;;
59109;SDS011;44895;47.438;18.978;2023-01-10T05:43:42;2.75;;;1.83;;
59109;SDS011;44895;47.438;18.978;2023-01-10T05:46:46;1.73;;;0.45;;
59109;SDS011;44895;47.438;18.978;2023-01-10T05:49:49;1.95;;;0.40;;
59109;SDS011;44895;47.438;18.978;2023-01-10T05:52:53;2.15;;;0.60;;
59109;SDS011;44895;47.438;18.978;2023-01-10T05:55:58;0.90;;;0.30;;
59109;SDS011;44895;47.438;18.978;2023-01-10T05:59:03;2.17;;;0.63;;
59109;SDS011;44895;47.438;18.978;2023-01-10T06:02:07;2.25;;;0.93;;
59109;SDS011;44895;47.438;18.978;2023-01-10T06:05:10;9.88;;;4.60;;
59109;SDS011;44895;47.438;18.978;2023-01-10T06:08:14;7.28;;;2.90;;
59109;SDS011;44895;47.438;18.978;2023-01-10T06:11:18;4.72;;;2.00;;
59109;SDS011;44895;47.438;18.978;2023-01-10T06:14:22;3.15;;;0.75;;
59109;SDS011;44895;47.438;18.978;2023-01-10T06:17:25;2.95;;;1.17;;
59109;SDS011;44895;47.438;18.978;2023-01-10T06:20:29;2.15;;;0.57;;
59109;SDS011;44895;47.438;18.978;2023-01-10T06:23:33;5.20;;;1.75;;
59109;SDS011;44895;47.438;18.978;2023-01-10T06:26:37;3.60;;;1.27;;
59109;SDS011;44895;47.438;18.978;2023-01-10T06:29:41;2.08;;;0.73;;
59109;SDS011;44895;47.438;18.978;2023-01-10T06:32:45;1.08;;;0.30;;
59109;SDS011;44895;47.438;18.978;2023-01-10T06:35:48;3.10;;;0.77;;
59109;SDS011;44895;47.438;18.978;2023-01-10T06:38:52;6.65;;;2.42;;
59109;SDS011;44895;47.438;18.978;2023-01-10T06:41:56;3.63;;;1.75;;
59109;SDS011;44895;47.438;18.978;2023-01-10T06:45:00;1.55;;;0.63;;
59109;SDS011;44895;47.438;18.978;2023-01-10T06:48:03;2.75;;;0.93;;
59109;SDS011;44895;47.438;18.978;2023-01-10T06:51:07;1.33;;;0.40;;
59109;SDS011;44895;47.438;18.978;2023-01-10T06:54:11;1.15;;;0.40;;
59109;SDS011;44895;47.438;18.978;2023-01-10T06:57:14;1.02;;;0.43;;
59109;SDS011;44895;47.438;18.978;2023-01-10T07:00:19;2.05;;;0.55;;
59109;SDS011;44895;47.438;18.978;2023-01-10T07:03:23;3.10;;;0.95;;
59109;SDS011;44895;47.438;18.978;2023-01-10T07:06:27;3.80;;;0.88;;
59109;SDS011;44895;47.438;18.978;2023-01-10T07:09:31;2.78;;;0.50;;
59109;SDS011;44895;47.438;18.978;2023-01-10T07:12:35;0.75;;;0.25;;
59109;SDS011;44895;47.438;18.978;2023-01-10T07:15:38;1.60;;;0.82;;
59109;SDS011;44895;47.438;18.978;2023-01-10T07:18:42;1.08;;;0.30;;
59109;SDS011;44895;47.438;18.978;2023-01-10T07:21:46;1.60;;;0.50;;
59109;SDS011;44895;47.438;18.978;2023-01-10T07:24:50;0.63;;;0.30;;
59109;SDS011;44895;47.438;18.978;2023-01-10T07:27:53;2.15;;;0.60;;
59109;SDS011;44895;47.438;18.978;2023-01-10T07:30:58;3.20;;;1.17;;
59109;SDS011;44895;47.438;18.978;2023-01-10T07:34:02;2.72;;;1.02;;
59109;SDS011;44895;47.438;18.978;2023-01-10T07:37:06;3.20;;;1.10;;
59109;SDS011;44895;47.438;18.978;2023-01-10T07:40:10;1.13;;;0.57;;
59109;SDS011;44895;47.438;18.978;2023-01-10T07:43:14;2.22;;;0.55;;
59109;SDS011;44895;47.438;18.978;2023-01-10T07:46:17;1.45;;;0.45;;
59109;SDS011;44895;47.438;18.978;2023-01-10T07:49:21;2.00;;;0.50;;
59109;SDS011;44895;47.438;18.978;2023-01-10T07:52:25;4.97;;;1.42;;
59109;SDS011;44895;47.438;18.978;2023-01-10T07:55:29;2.20;;;0.60;;
59109;SDS011;44895;47.438;18.978;2023-01-10T07:58:33;1.27;;;0.50;;
59109;SDS011;44895;47.438;18.978;2023-01-10T08:01:38;3.15;;;1.27;;
59109;SDS011;44895;47.438;18.978;2023-01-10T08:04:41;1.85;;;0.57;;
59109;SDS011;44895;47.438;18.978;2023-01-10T08:07:46;3.25;;;0.90;;
59109;SDS011;44895;47.438;18.978;2023-01-10T08:10:50;2.92;;;1.08;;
59109;SDS011;44895;47.438;18.978;2023-01-10T08:13:55;2.63;;;0.90;;
59109;SDS011;44895;47.438;18.978;2023-01-10T08:16:59;2.22;;;0.80;;
59109;SDS011;44895;47.438;18.978;2023-01-10T08:20:03;3.60;;;1.38;;
59109;SDS011;44895;47.438;18.978;2023-01-10T08:23:06;1.25;;;0.50;;
59109;SDS011;44895;47.438;18.978;2023-01-10T08:26:10;2.83;;;1.23;;
59109;SDS011;44895;47.438;18.978;2023-01-10T08:29:14;2.60;;;0.63;;
59109;SDS011;44895;47.438;18.978;2023-01-10T08:32:18;2.83;;;0.82;;
59109;SDS011;44895;47.438;18.978;2023-01-10T08:35:22;2.45;;;0.70;;
59109;SDS011;44895;47.438;18.978;2023-01-10T08:38:25;2.78;;;1.05;;
59109;SDS011;44895;47.438;18.978;2023-01-10T08:41:29;1.33;;;0.50;;
59109;SDS011;44895;47.438;18.978;2023-01-10T08:44:33;2.58;;;0.70;;
59109;SDS011;44895;47.438;18.978;2023-01-10T08:47:37;3.53;;;0.90;;
59109;SDS011;44895;47.438;18.978;2023-01-10T08:50:40;2.83;;;0.70;;
59109;SDS011;44895;47.438;18.978;2023-01-10T08:53:44;2.00;;;0.60;;
59109;SDS011;44895;47.438;18.978;2023-01-10T08:56:48;2.95;;;0.75;;
59109;SDS011;44895;47.438;18.978;2023-01-10T08:59:52;3.45;;;1.50;;
59109;SDS011;44895;47.438;18.978;2023-01-10T09:02:56;4.20;;;1.20;;
59109;SDS011;44895;47.438;18.978;2023-01-10T09:06:00;8.75;;;2.70;;
59109;SDS011;44895;47.438;18.978;2023-01-10T09:09:04;8.45;;;3.08;;
59109;SDS011;44895;47.438;18.978;2023-01-10T09:12:08;17.63;;;8.15;;
59109;SDS011;44895;47.438;18.978;2023-01-10T09:15:31;4.18;;;1.48;;
59109;SDS011;44895;47.438;18.978;2023-01-10T09:18:36;2.45;;;0.88;;
59109;SDS011;44895;47.438;18.978;2023-01-10T09:21:41;2.00;;;0.75;;
59109;SDS011;44895;47.438;18.978;2023-01-10T09:24:45;8.57;;;3.20;;
59109;SDS011;44895;47.438;18.978;2023-01-10T09:27:58;3.03;;;1.15;;
59109;SDS011;44895;47.438;18.978;2023-01-10T09:31:03;2.15;;;0.80;;
59109;SDS011;44895;47.438;18.978;2023-01-10T09:34:07;3.85;;;0.95;;
59109;SDS011;44895;47.438;18.978;2023-01-10T09:37:11;3.42;;;1.02;;
59109;SDS011;44895;47.438;18.978;2023-01-10T09:40:16;1.95;;;0.70;;
59109;SDS011;44895;47.438;18.978;2023-01-10T09:43:45;7.45;;;3.05;;
59109;SDS011;44895;47.438;18.978;2023-01-10T09:54:04;1.50;;;0.38;;
59109;SDS011;44895;47.438;18.978;2023-01-10T09:57:15;1.45;;;0.40;;
59109;SDS011;44895;47.438;18.978;2023-01-10T10:01:05;2.08;;;0.50;;
59109;SDS011;44895;47.438;18.978;2023-01-10T10:04:01;2.05;;;0.65;;
59109;SDS011;44895;47.438;18.978;2023-01-10T10:07:16;2.38;;;0.73;;
59109;SDS011;44895;47.438;18.978;2023-01-10T10:10:26;3.10;;;0.80;;
59109;SDS011;44895;47.438;18.978;2023-01-10T10:17:13;1.38;;;0.50;;
59109;SDS011;44895;47.438;18.978;2023-01-10T10:23:57;2.85;;;0.60;;
59109;SDS011;44895;47.438;18.978;2023-01-10T10:27:20;3.75;;;0.80;;
59109;SDS011;44895;47.438;18.978;2023-01-10T10:30:29;1.55;;;0.57;;
59109;SDS011;44895;47.438;18.978;2023-01-10T10:37:25;2.97;;;0.80;;
59109;SDS011;44895;47.438;18.978;2023-01-10T10:40:36;11.98;;;4.35;;
59109;SDS011;44895;47.438;18.978;2023-01-10T10:43:44;1.63;;;0.52;;
59109;SDS011;44895;47.438;18.978;2023-01-10T10:46:48;1.48;;;0.50;;
59109;SDS011;44895;47.438;18.978;2023-01-10T10:49:58;2.30;;;0.50;;
59109;SDS011;44895;47.438;18.978;2023-01-10T10:53:19;2.40;;;0.90;;
59109;SDS011;44895;47.438;18.978;2023-01-10T10:56:23;1.15;;;0.55;;
59109;SDS011;44895;47.438;18.978;2023-01-10T10:59:28;1.90;;;0.93;;
59109;SDS011;44895;47.438;18.978;2023-01-10T11:02:38;4.68;;;1.15;;
59109;SDS011;44895;47.438;18.978;2023-01-10T11:05:45;2.90;;;0.60;;
59109;SDS011;44895;47.438;18.978;2023-01-10T11:08:51;1.00;;;0.47;;
59109;SDS011;44895;47.438;18.978;2023-01-10T11:11:57;4.82;;;1.38;;
59109;SDS011;44895;47.438;18.978;2023-01-10T11:15:01;3.08;;;0.82;;
59109;SDS011;44895;47.438;18.978;2023-01-10T11:18:10;2.83;;;0.77;;
59109;SDS011;44895;47.438;18.978;2023-01-10T11:21:14;4.93;;;1.33;;
59109;SDS011;44895;47.438;18.978;2023-01-10T11:24:30;5.30;;;1.48;;
59109;SDS011;44895;47.438;18.978;2023-01-10T11:27:45;4.43;;;1.95;;
59109;SDS011;44895;47.438;18.978;2023-01-10T11:30:51;5.43;;;1.52;;
59109;SDS011;44895;47.438;18.978;2023-01-10T11:33:55;2.22;;;0.80;;
59109;SDS011;44895;47.438;18.978;2023-01-10T11:37:04;3.20;;;0.65;;
59109;SDS011;44895;47.438;18.978;2023-01-10T11:40:32;2.55;;;0.65;;
59109;SDS011;44895;47.438;18.978;2023-01-10T11:43:37;1.23;;;0.40;;
59109;SDS011;44895;47.438;18.978;2023-01-10T11:46:43;2.78;;;0.77;;
59109;SDS011;44895;47.438;18.978;2023-01-10T11:49:48;2.33;;;0.80;;
59109;SDS011;44895;47.438;18.978;2023-01-10T11:52:53;3.03;;;0.63;;
59109;SDS011;44895;47.438;18.978;2023-01-10T11:55:58;1.70;;;0.70;;
59109;SDS011;44895;47.438;18.978;2023-01-10T11:59:07;2.40;;;0.77;;
59109;SDS011;44895;47.438;18.978;2023-01-10T12:05:30;2.35;;;1.02;;
59109;SDS011;44895;47.438;18.978;2023-01-10T12:08:34;3.08;;;0.95;;
59109;SDS011;44895;47.438;18.978;2023-01-10T12:11:40;1.85;;;0.57;;
59109;SDS011;44895;47.438;18.978;2023-01-10T12:14:44;0.70;;;0.35;;
59109;SDS011;44895;47.438;18.978;2023-01-10T12:17:49;2.00;;;0.55;;
59109;SDS011;44895;47.438;18.978;2023-01-10T12:20:54;3.45;;;0.40;;
59109;SDS011;44895;47.438;18.978;2023-01-10T12:24:00;1.70;;;0.70;;
59109;SDS011;44895;47.438;18.978;2023-01-10T12:27:14;2.55;;;0.80;;
59109;SDS011;44895;47.438;18.978;2023-01-10T12:30:38;1.50;;;0.47;;
59109;SDS011;44895;47.438;18.978;2023-01-10T12:33:46;2.60;;;0.75;;
59109;SDS011;44895;47.438;18.978;2023-01-10T12:37:08;0.63;;;0.22;;
59109;SDS011;44895;47.438;18.978;2023-01-10T12:40:29;1.83;;;0.50;;
59109;SDS011;44895;47.438;18.978;2023-01-10T12:43:39;5.38;;;0.85;;
59109;SDS011;44895;47.438;18.978;2023-01-10T12:50:34;1.33;;;0.60;;
59109;SDS011;44895;47.438;18.978;2023-01-10T12:53:44;3.83;;;1.00;;
59109;SDS011;44895;47.438;18.978;2023-01-10T12:56:57;1.23;;;0.52;;
59109;SDS011;44895;47.438;18.978;2023-01-10T13:00:05;1.75;;;0.40;;
59109;SDS011;44895;47.438;18.978;2023-01-10T13:03:21;4.57;;;1.02;;
59109;SDS011;44895;47.438;18.978;2023-01-10T13:06:33;1.20;;;0.50;;
59109;SDS011;44895;47.438;18.978;2023-01-10T13:09:41;1.92;;;0.47;;
59109;SDS011;44895;47.438;18.978;2023-01-10T13:12:56;1.23;;;0.50;;
59109;SDS011;44895;47.438;18.978;2023-01-10T13:19:51;1.70;;;0.68;;
59109;SDS011;44895;47.438;18.978;2023-01-10T13:23:27;4.20;;;1.35;;
59109;SDS011;44895;47.438;18.978;2023-01-10T13:29:51;1.20;;;0.47;;
59109;SDS011;44895;47.438;18.978;2023-01-10T13:33:02;1.38;;;0.63;;
59109;SDS011;44895;47.438;18.978;2023-01-10T13:36:09;1.48;;;0.50;;
59109;SDS011;44895;47.438;18.978;2023-01-10T13:39:23;1.95;;;0.80;;
59109;SDS011;44895;47.438;18.978;2023-01-10T13:42:34;2.42;;;0.63;;
59109;SDS011;44895;47.438;18.978;2023-01-10T13:49:24;2.78;;;0.82;;
59109;SDS011;44895;47.438;18.978;2023-01-10T13:52:41;4.75;;;1.10;;
59109;SDS011;44895;47.438;18.978;2023-01-10T13:58:56;3.22;;;1.35;;
59109;SDS011;44895;47.438;18.978;2023-01-10T14:02:22;1.80;;;0.60;;
59109;SDS011;44895;47.438;18.978;2023-01-10T14:05:31;2.42;;;0.85;;
59109;SDS011;44895;47.438;18.978;2023-01-10T14:08:35;3.42;;;0.93;;
59109;SDS011;44895;47.438;18.978;2023-01-10T14:18:33;3.10;;;0.80;;
59109;SDS011;44895;47.438;18.978;2023-01-10T14:21:41;4.97;;;0.68;;
59109;SDS011;44895;47.438;18.978;2023-01-10T14:24:47;1.88;;;0.65;;
59109;SDS011;44895;47.438;18.978;2023-01-10T14:27:55;2.97;;;1.10;;
59109;SDS011;44895;47.438;18.978;2023-01-10T14:31:08;3.33;;;0.85;;
59109;SDS011;44895;47.438;18.978;2023-01-10T14:34:27;3.58;;;1.02;;
59109;SDS011;44895;47.438;18.978;2023-01-10T14:37:41;3.08;;;0.90;;
59109;SDS011;44895;47.438;18.978;2023-01-10T14:40:49;2.03;;;0.47;;
59109;SDS011;44895;47.438;18.978;2023-01-10T14:44:01;3.55;;;1.25;;
59109;SDS011;44895;47.438;18.978;2023-01-10T14:50:32;1.98;;;0.77;;
59109;SDS011;44895;47.438;18.978;2023-01-10T14:53:38;4.40;;;1.10;;
59109;SDS011;44895;47.438;18.978;2023-01-10T14:56:48;3.30;;;1.00;;
59109;SDS011;44895;47.438;18.978;2023-01-10T15:00:10;2.83;;;1.02;;
59109;SDS011;44895;47.438;18.978;2023-01-10T15:03:23;5.18;;;1.23;;
59109;SDS011;44895;47.438;18.978;2023-01-10T15:06:27;8.82;;;2.22;;
59109;SDS011;44895;47.438;18.978;2023-01-10T15:09:31;3.80;;;1.35;;
59109;SDS011;44895;47.438;18.978;2023-01-10T15:12:35;3.22;;;1.27;;
59109;SDS011;44895;47.438;18.978;2023-01-10T15:15:39;4.15;;;1.40;;
59109;SDS011;44895;47.438;18.978;2023-01-10T15:18:45;3.35;;;1.00;;
59109;SDS011;44895;47.438;18.978;2023-01-10T15:21:50;2.80;;;1.05;;
59109;SDS011;44895;47.438;18.978;2023-01-10T15:24:58;3.92;;;1.20;;
59109;SDS011;44895;47.438;18.978;2023-01-10T15:28:04;4.63;;;1.38;;
59109;SDS011;44895;47.438;18.978;2023-01-10T15:31:17;3.97;;;1.13;;
59109;SDS011;44895;47.438;18.978;2023-01-10T15:34:22;4.22;;;2.00;;
59109;SDS011;44895;47.438;18.978;2023-01-10T15:37:32;4.55;;;1.88;;
59109;SDS011;44895;47.438;18.978;2023-01-10T15:40:39;6.15;;;1.48;;
59109;SDS011;44895;47.438;18.978;2023-01-10T15:43:44;4.72;;;1.67;;
59109;SDS011;44895;47.438;18.978;2023-01-10T15:46:55;6.97;;;2.08;;
59109;SDS011;44895;47.438;18.978;2023-01-10T15:49:59;3.10;;;1.35;;
59109;SDS011;44895;47.438;18.978;2023-01-10T15:53:07;3.85;;;1.40;;
59109;SDS011;44895;47.438;18.978;2023-01-10T15:56:14;5.65;;;1.48;;
59109;SDS011;44895;47.438;18.978;2023-01-10T15:59:24;2.63;;;1.15;;
59109;SDS011;44895;47.438;18.978;2023-01-10T16:02:43;3.75;;;1.63;;
59109;SDS011;44895;47.438;18.978;2023-01-10T16:05:48;3.25;;;1.48;;
59109;SDS011;44895;47.438;18.978;2023-01-10T16:08:57;4.60;;;1.38;;
59109;SDS011;44895;47.438;18.978;2023-01-10T16:12:03;5.47;;;1.37;;
59109;SDS011;44895;47.438;18.978;2023-01-10T16:15:27;5.03;;;1.80;;
59109;SDS011;44895;47.438;18.978;2023-01-10T16:18:36;4.32;;;1.45;;
59109;SDS011;44895;47.438;18.978;2023-01-10T16:21:41;3.72;;;1.40;;
59109;SDS011;44895;47.438;18.978;2023-01-10T16:24:48;4.22;;;1.40;;
59109;SDS011;44895;47.438;18.978;2023-01-10T16:27:55;3.35;;;1.20;;
59109;SDS011;44895;47.438;18.978;2023-01-10T16:31:00;4.20;;;1.58;;
59109;SDS011;44895;47.438;18.978;2023-01-10T16:34:07;3.65;;;1.33;;
59109;SDS011;44895;47.438;18.978;2023-01-10T16:37:10;4.50;;;1.50;;
59109;SDS011;44895;47.438;18.978;2023-01-10T16:40:19;3.75;;;1.27;;
59109;SDS011;44895;47.438;18.978;2023-01-10T16:43:26;4.07;;;1.52;;
59109;SDS011;44895;47.438;18.978;2023-01-10T16:46:31;2.17;;;1.05;;
59109;SDS011;44895;47.438;18.978;2023-01-10T16:49:34;4.53;;;1.27;;
59109;SDS011;44895;47.438;18.978;2023-01-10T16:52:38;4.35;;;1.55;;
59109;SDS011;44895;47.438;18.978;2023-01-10T16:58:47;4.22;;;1.77;;
59109;SDS011;44895;47.438;18.978;2023-01-10T17:01:52;2.92;;;1.42;;
59109;SDS011;44895;47.438;18.978;2023-01-10T17:04:59;6.13;;;2.00;;
59109;SDS011;44895;47.438;18.978;2023-01-10T17:08:02;5.05;;;2.45;;
59109;SDS011;44895;47.438;18.978;2023-01-10T17:11:10;4.30;;;1.40;;
59109;SDS011;44895;47.438;18.978;2023-01-10T17:14:25;3.55;;;1.50;;
59109;SDS011;44895;47.438;18.978;2023-01-10T17:17:29;4.00;;;1.38;;
59109;SDS011;44895;47.438;18.978;2023-01-10T17:20:33;4.35;;;1.40;;
59109;SDS011;44895;47.438;18.978;2023-01-10T17:23:36;3.47;;;1.10;;
59109;SDS011;44895;47.438;18.978;2023-01-10T17:26:40;4.68;;;1.85;;
59109;SDS011;44895;47.438;18.978;2023-01-10T17:29:44;3.50;;;1.40;;
59109;SDS011;44895;47.438;18.978;2023-01-10T17:32:47;5.80;;;1.60;;
59109;SDS011;44895;47.438;18.978;2023-01-10T17:35:52;7.53;;;2.67;;
59109;SDS011;44895;47.438;18.978;2023-01-10T17:38:58;6.65;;;2.88;;
59109;SDS011;44895;47.438;18.978;2023-01-10T17:42:03;5.72;;;1.50;;
59109;SDS011;44895;47.438;18.978;2023-01-10T17:45:08;3.10;;;1.33;;
59109;SDS011;44895;47.438;18.978;2023-01-10T17:48:12;4.20;;;1.27;;
59109;SDS011;44895;47.438;18.978;2023-01-10T17:51:18;4.22;;;1.40;;
59109;SDS011;44895;47.438;18.978;2023-01-10T17:54:22;2.05;;;0.90;;
59109;SDS011;44895;47.438;18.978;2023-01-10T17:57:25;3.58;;;1.35;;
59109;SDS011;44895;47.438;18.978;2023-01-10T18:00:29;6.65;;;1.08;;
59109;SDS011;44895;47.438;18.978;2023-01-10T18:03:34;4.55;;;1.55;;
59109;SDS011;44895;47.438;18.978;2023-01-10T18:06:37;5.82;;;1.50;;
59109;SDS011;44895;47.438;18.978;2023-01-10T18:09:41;4.38;;;1.45;;
59109;SDS011;44895;47.438;18.978;2023-01-10T18:12:45;4.38;;;1.70;;
59109;SDS011;44895;47.438;18.978;2023-01-10T18:15:49;2.92;;;1.17;;
59109;SDS011;44895;47.438;18.978;2023-01-10T18:18:54;3.28;;;1.20;;
59109;SDS011;44895;47.438;18.978;2023-01-10T18:21:58;4.18;;;1.23;;
59109;SDS011;44895;47.438;18.978;2023-01-10T18:25:01;5.53;;;1.90;;
59109;SDS011;44895;47.438;18.978;2023-01-10T18:28:05;4.90;;;1.90;;
59109;SDS011;44895;47.438;18.978;2023-01-10T18:31:11;4.88;;;1.17;;
59109;SDS011;44895;47.438;18.978;2023-01-10T18:34:18;3.30;;;1.63;;
59109;SDS011;44895;47.438;18.978;2023-01-10T18:37:21;4.60;;;1.40;;
59109;SDS011;44895;47.438;18.978;2023-01-10T18:40:26;5.00;;;2.40;;
59109;SDS011;44895;47.438;18.978;2023-01-10T18:43:29;4.70;;;1.45;;
59109;SDS011;44895;47.438;18.978;2023-01-10T18:46:35;3.80;;;1.48;;
59109;SDS011;44895;47.438;18.978;2023-01-10T18:49:38;3.38;;;1.38;;
59109;SDS011;44895;47.438;18.978;2023-01-10T18:52:42;3.17;;;1.25;;
59109;SDS011;44895;47.438;18.978;2023-01-10T18:59:00;4.15;;;1.60;;
59109;SDS011;44895;47.438;18.978;2023-01-10T19:02:04;6.07;;;2.28;;
59109;SDS011;44895;47.438;18.978;2023-01-10T19:05:12;4.38;;;1.50;;
59109;SDS011;44895;47.438;18.978;2023-01-10T19:08:17;6.22;;;2.08;;
59109;SDS011;44895;47.438;18.978;2023-01-10T19:11:21;5.05;;;1.65;;
59109;SDS011;44895;47.438;18.978;2023-01-10T19:14:25;6.45;;;2.55;;
59109;SDS011;44895;47.438;18.978;2023-01-10T19:17:31;5.35;;;1.95;;
59109;SDS011;44895;47.438;18.978;2023-01-10T19:20:34;8.98;;;3.70;;
59109;SDS011;44895;47.438;18.978;2023-01-10T19:23:39;5.90;;;2.22;;
59109;SDS011;44895;47.438;18.978;2023-01-10T19:26:44;6.20;;;2.50;;
59109;SDS011;44895;47.438;18.978;2023-01-10T19:29:48;7.00;;;2.50;;
59109;SDS011;44895;47.438;18.978;2023-01-10T19:32:52;5.90;;;1.92;;
59109;SDS011;44895;47.438;18.978;2023-01-10T19:35:57;6.47;;;2.28;;
59109;SDS011;44895;47.438;18.978;2023-01-10T19:39:01;6.20;;;3.30;;
59109;SDS011;44895;47.438;18.978;2023-01-10T19:42:05;6.43;;;2.25;;
59109;SDS011;44895;47.438;18.978;2023-01-10T19:45:09;6.93;;;2.38;;
59109;SDS011;44895;47.438;18.978;2023-01-10T19:48:13;6.15;;;2.10;;
59109;SDS011;44895;47.438;18.978;2023-01-10T19:51:17;6.75;;;2.28;;
59109;SDS011;44895;47.438;18.978;2023-01-10T19:54:21;6.18;;;2.47;;
59109;SDS011;44895;47.438;18.978;2023-01-10T19:57:26;4.60;;;1.83;;
59109;SDS011;44895;47.438;18.978;2023-01-10T20:00:30;6.30;;;2.97;;